createdAt,value
2022-10-16T00:02:05.224Z,11.10
2022-10-16T00:04:34.304Z,11.10
2022-10-16T00:07:03.408Z,11.10
2022-10-16T00:09:32.514Z,11.10
2022-10-16T00:12:01.616Z,11.10
2022-10-16T00:14:30.590Z,11.10
2022-10-16T00:17:00.978Z,11.10
2022-10-16T00:19:30.060Z,11.00
2022-10-16T00:21:59.074Z,11.00
2022-10-16T00:24:46.279Z,11.00
2022-10-16T00:27:15.382Z,11.00
2022-10-16T00:29:44.535Z,11.00
2022-10-16T00:32:14.883Z,11.00
2022-10-16T00:34:43.942Z,11.00
2022-10-16T00:37:12.956Z,11.00
2022-10-16T00:39:41.958Z,11.00
2022-10-16T00:42:16.705Z,11.00
2022-10-16T00:44:50.812Z,11.00
2022-10-16T00:47:26.488Z,11.00
2022-10-16T00:50:00.873Z,11.00
2022-10-16T00:52:29.993Z,11.00
2022-10-16T00:55:00.266Z,11.00
2022-10-16T00:57:29.434Z,11.00
2022-10-16T00:59:59.875Z,11.00
2022-10-16T01:02:30.257Z,11.00
2022-10-16T01:04:59.475Z,11.00
2022-10-16T01:07:39.305Z,11.00
2022-10-16T01:10:16.755Z,11.00
2022-10-16T01:12:52.258Z,11.00
2022-10-16T01:15:28.678Z,11.00
2022-10-16T01:18:07.109Z,11.00
2022-10-16T01:20:40.703Z,11.00
2022-10-16T01:23:23.525Z,10.90
2022-10-16T01:26:10.317Z,10.90
2022-10-16T01:28:47.315Z,10.90
2022-10-16T01:31:20.807Z,11.00
2022-10-16T01:33:55.110Z,11.00
2022-10-16T01:36:28.974Z,10.90
2022-10-16T01:39:02.778Z,10.90
2022-10-16T01:41:37.413Z,10.90
2022-10-16T01:44:10.450Z,10.90
2022-10-16T01:46:41.909Z,10.90
2022-10-16T01:49:12.672Z,10.90
2022-10-16T01:51:41.902Z,10.90
2022-10-16T01:54:14.677Z,10.90
2022-10-16T01:56:44.731Z,10.90
2022-10-16T01:59:17.939Z,10.90
2022-10-16T02:01:52.449Z,10.90
2022-10-16T02:04:26.468Z,10.90
2022-10-16T02:06:56.017Z,10.90
2022-10-16T02:09:25.004Z,10.80
2022-10-16T02:11:57.153Z,10.90
2022-10-16T02:14:28.438Z,10.80
2022-10-16T02:16:57.247Z,10.80
2022-10-16T02:19:26.337Z,10.80
2022-10-16T02:21:58.728Z,10.80
2022-10-16T02:24:35.351Z,10.80
2022-10-16T02:27:09.318Z,10.80
2022-10-16T02:29:45.560Z,10.80
2022-10-16T02:32:17.805Z,10.80
2022-10-16T02:34:48.025Z,10.80
2022-10-16T02:37:17.617Z,10.80
2022-10-16T02:39:46.613Z,10.80
2022-10-16T02:42:16.555Z,10.80
2022-10-16T02:44:47.023Z,10.80
2022-10-16T02:47:16.063Z,10.70
2022-10-16T02:49:45.145Z,10.70
2022-10-16T02:52:14.146Z,10.70
2022-10-16T02:54:43.082Z,10.70
2022-10-16T02:57:12.819Z,10.70
2022-10-16T02:59:41.842Z,10.80
2022-10-16T03:02:12.393Z,10.70
2022-10-16T03:04:41.391Z,10.70
2022-10-16T03:07:10.369Z,10.70
2022-10-16T03:09:39.322Z,10.70
2022-10-16T03:12:08.434Z,10.70
2022-10-16T03:14:37.428Z,10.70
2022-10-16T03:17:06.357Z,10.70
2022-10-16T03:19:36.897Z,10.70
2022-10-16T03:22:05.920Z,10.70
2022-10-16T03:24:34.849Z,10.70
2022-10-16T03:27:03.853Z,10.60
2022-10-16T03:29:33.838Z,10.60
2022-10-16T03:32:03.439Z,10.60
2022-10-16T03:34:32.753Z,10.60
2022-10-16T03:37:03.187Z,10.60
2022-10-16T03:39:32.153Z,10.60
2022-10-16T03:42:01.123Z,10.50
2022-10-16T03:44:30.052Z,10.60
2022-10-16T03:46:59.009Z,10.60
2022-10-16T03:49:27.969Z,10.60
2022-10-16T03:51:56.974Z,10.60
2022-10-16T03:54:27.318Z,10.60
2022-10-16T03:56:56.248Z,10.60
2022-10-16T03:59:25.259Z,10.60
2022-10-16T04:01:54.192Z,10.60
2022-10-16T04:04:23.266Z,10.60
2022-10-16T04:06:52.231Z,10.60
2022-10-16T04:09:21.226Z,10.60
2022-10-16T04:11:51.807Z,10.60
2022-10-16T04:14:20.949Z,10.60
2022-10-16T04:16:49.922Z,10.60
2022-10-16T04:19:18.892Z,10.60
2022-10-16T04:21:47.903Z,10.60
2022-10-16T04:24:16.945Z,10.60
2022-10-16T04:26:45.937Z,10.60
2022-10-16T04:29:16.320Z,10.60
2022-10-16T04:31:45.263Z,10.60
2022-10-16T04:34:14.262Z,10.60
2022-10-16T04:36:43.230Z,10.60
2022-10-16T04:39:12.165Z,10.60
2022-10-16T04:41:41.129Z,10.60
2022-10-16T04:44:10.245Z,10.50
2022-10-16T04:46:40.705Z,10.50
2022-10-16T04:49:09.638Z,10.50
2022-10-16T04:51:38.575Z,10.50
2022-10-16T04:54:07.689Z,10.60
2022-10-16T04:56:43.965Z,10.60
2022-10-16T04:59:12.907Z,10.60
2022-10-16T05:01:43.282Z,10.60
2022-10-16T05:04:12.266Z,10.60
2022-10-16T05:06:41.527Z,10.70
2022-10-16T05:09:11.298Z,10.70
2022-10-16T05:11:40.263Z,10.70
2022-10-16T05:16:44.625Z,10.70
2022-10-16T05:19:29.160Z,10.70
2022-10-16T05:21:58.461Z,10.70
2022-10-16T05:24:27.435Z,10.70
2022-10-16T05:26:56.580Z,10.70
2022-10-16T05:29:25.658Z,10.70
2022-10-16T05:31:56.089Z,10.70
2022-10-16T05:34:25.154Z,10.70
2022-10-16T05:36:54.146Z,10.70
2022-10-16T05:39:23.135Z,10.70
2022-10-16T05:41:53.380Z,10.70
2022-10-16T05:44:22.681Z,10.80
2022-10-16T05:46:51.662Z,10.80
2022-10-16T05:49:22.050Z,10.80
2022-10-16T05:51:51.004Z,10.80
2022-10-16T05:54:20.014Z,10.80
2022-10-16T05:56:49.001Z,10.70
2022-10-16T05:59:18.038Z,10.70
2022-10-16T06:01:47.052Z,10.70
2022-10-16T06:04:16.079Z,10.70
2022-10-16T06:06:46.459Z,10.70
2022-10-16T06:09:15.400Z,10.70
2022-10-16T06:11:44.508Z,10.70
2022-10-16T06:14:13.425Z,10.70
2022-10-16T06:16:42.372Z,10.70
2022-10-16T06:19:11.360Z,10.70
2022-10-16T06:21:40.377Z,10.70
2022-10-16T06:24:11.737Z,10.60
2022-10-16T06:26:40.492Z,10.60
2022-10-16T06:29:11.040Z,10.60
2022-10-16T06:31:40.105Z,10.70
2022-10-16T06:34:12.468Z,10.70
2022-10-16T06:36:42.109Z,10.70
2022-10-16T06:39:12.499Z,10.70
2022-10-16T06:41:41.570Z,10.70
2022-10-16T06:44:18.000Z,10.70
2022-10-16T06:46:46.944Z,10.60
2022-10-16T06:49:22.184Z,10.60
2022-10-16T06:51:51.443Z,10.60
2022-10-16T06:54:21.786Z,10.60
2022-10-16T06:56:50.755Z,10.70
2022-10-16T06:59:19.836Z,10.70
2022-10-16T07:01:49.157Z,10.60
2022-10-16T07:04:18.100Z,10.70
2022-10-16T07:06:47.105Z,10.70
2022-10-16T07:09:16.086Z,10.70
2022-10-16T07:11:46.481Z,10.70
2022-10-16T07:14:18.218Z,10.70
2022-10-16T07:16:47.284Z,10.80
2022-10-16T07:19:18.723Z,10.80
2022-10-16T07:21:47.917Z,10.80
2022-10-16T07:24:18.134Z,10.80
2022-10-16T07:26:48.633Z,10.90
2022-10-16T07:29:19.633Z,10.90
2022-10-16T07:31:49.796Z,10.90
2022-10-16T07:34:22.563Z,10.90
2022-10-16T07:36:51.837Z,11.00
2022-10-16T07:39:21.116Z,11.00
2022-10-16T07:41:51.446Z,11.00
2022-10-16T07:44:20.406Z,11.00
2022-10-16T07:46:49.454Z,11.00
2022-10-16T07:49:18.430Z,11.10
2022-10-16T07:51:47.356Z,11.10
2022-10-16T07:54:16.440Z,11.20
2022-10-16T07:56:45.390Z,11.20
2022-10-16T07:59:15.964Z,11.30
2022-10-16T08:01:45.118Z,11.30
2022-10-16T08:04:14.254Z,11.40
2022-10-16T08:06:43.631Z,11.50
2022-10-16T08:09:12.731Z,11.50
2022-10-16T08:11:41.753Z,11.60
2022-10-16T08:14:10.716Z,11.70
2022-10-16T08:16:41.416Z,11.70
2022-10-16T08:19:10.455Z,11.80
2022-10-16T08:21:39.440Z,11.80
2022-10-16T08:24:08.426Z,11.90
2022-10-16T08:26:37.366Z,11.90
2022-10-16T08:29:06.451Z,12.00
2022-10-16T08:31:35.655Z,12.00
2022-10-16T08:34:06.274Z,12.10
2022-10-16T08:36:35.242Z,12.10
2022-10-16T08:39:04.405Z,12.10
2022-10-16T08:41:57.243Z,12.20
2022-10-16T08:44:56.968Z,12.30
2022-10-16T08:47:28.807Z,12.30
2022-10-16T08:50:02.787Z,12.40
2022-10-16T08:52:37.642Z,12.40
2022-10-16T08:55:07.987Z,12.40
2022-10-16T08:57:36.996Z,12.50
2022-10-16T09:00:15.036Z,12.50
2022-10-16T09:02:52.100Z,12.50
2022-10-16T09:05:35.035Z,12.50
2022-10-16T09:08:13.418Z,12.60
2022-10-16T09:10:52.298Z,12.60
2022-10-16T09:13:28.469Z,12.60
2022-10-16T09:16:05.759Z,12.60
2022-10-16T09:18:43.144Z,12.60
2022-10-16T09:21:20.325Z,12.70
2022-10-16T09:23:49.950Z,12.80
2022-10-16T09:26:20.740Z,12.80
2022-10-16T09:28:49.933Z,12.90
2022-10-16T09:31:21.082Z,13.00
2022-10-16T09:33:55.547Z,13.10
2022-10-16T09:36:28.058Z,13.10
2022-10-16T09:39:08.702Z,13.30
2022-10-16T09:41:39.419Z,13.40
2022-10-16T09:44:20.909Z,13.60
2022-10-16T09:46:49.649Z,13.70
2022-10-16T09:49:24.705Z,13.80
2022-10-16T09:52:05.717Z,13.80
2022-10-16T09:54:34.808Z,13.90
2022-10-16T09:57:08.086Z,13.80
2022-10-16T09:59:47.564Z,13.90
2022-10-16T10:02:18.467Z,13.80
2022-10-16T10:04:52.435Z,13.80
2022-10-16T10:07:27.718Z,13.80
2022-10-16T10:09:58.838Z,13.80
2022-10-16T10:12:30.930Z,13.70
2022-10-16T10:15:05.692Z,13.70
2022-10-16T10:17:35.436Z,13.70
2022-10-16T10:20:24.810Z,13.70
2022-10-16T10:22:56.649Z,13.60
2022-10-16T10:25:39.677Z,13.60
2022-10-16T10:28:42.929Z,13.60
2022-10-16T10:31:19.237Z,13.60
2022-10-16T10:33:56.797Z,13.70
2022-10-16T10:36:32.495Z,13.60
2022-10-16T10:39:07.101Z,13.60
2022-10-16T10:42:18.223Z,13.50
2022-10-16T10:45:19.801Z,13.50
2022-10-16T10:48:05.916Z,13.50
2022-10-16T10:50:41.902Z,13.40
2022-10-16T10:53:20.831Z,13.40
2022-10-16T10:56:00.621Z,13.40
2022-10-16T10:59:09.481Z,13.40
2022-10-16T11:01:49.082Z,13.40
2022-10-16T11:04:40.572Z,13.40
2022-10-16T11:07:16.285Z,13.40
2022-10-16T11:09:49.420Z,13.40
2022-10-16T11:12:24.029Z,13.40
2022-10-16T11:15:00.693Z,13.40
2022-10-16T11:17:34.306Z,13.40
2022-10-16T11:20:14.295Z,13.50
2022-10-16T11:22:49.136Z,13.50
2022-10-16T11:25:23.193Z,13.50
2022-10-16T11:27:59.036Z,13.50
2022-10-16T11:30:29.695Z,13.50
2022-10-16T11:33:12.658Z,13.40
2022-10-16T11:35:46.433Z,13.40
2022-10-16T11:38:23.622Z,13.40
2022-10-16T11:40:58.532Z,13.40
2022-10-16T11:43:34.087Z,13.40
2022-10-16T11:46:10.510Z,13.50
2022-10-16T11:48:45.503Z,13.40
2022-10-16T11:51:21.640Z,13.50
2022-10-16T11:53:58.337Z,13.50
2022-10-16T11:56:27.887Z,13.50
2022-10-16T11:59:03.628Z,13.50
2022-10-16T12:01:40.155Z,13.50
2022-10-16T12:04:22.189Z,13.50
2022-10-16T12:06:55.193Z,13.50
2022-10-16T12:09:28.044Z,13.50
2022-10-16T12:11:57.387Z,13.50
2022-10-16T12:15:04.064Z,13.50
2022-10-16T12:17:37.131Z,13.50
2022-10-16T12:20:27.922Z,13.50
2022-10-16T12:22:59.495Z,13.40
2022-10-16T12:25:31.242Z,13.40
2022-10-16T12:28:05.959Z,13.40
2022-10-16T12:30:38.799Z,13.40
2022-10-16T12:33:22.031Z,13.30
2022-10-16T12:35:51.281Z,13.30
2022-10-16T12:38:23.212Z,13.30
2022-10-16T12:41:00.178Z,13.20
2022-10-16T12:43:43.248Z,13.20
2022-10-16T12:46:26.541Z,13.10
2022-10-16T12:49:06.732Z,13.10
2022-10-16T12:51:38.544Z,13.10
2022-10-16T12:54:15.246Z,13.10
2022-10-16T12:56:57.914Z,13.10
2022-10-16T12:59:37.382Z,13.00
2022-10-16T13:02:43.107Z,13.10
2022-10-16T13:05:27.801Z,13.10
2022-10-16T13:08:12.657Z,13.00
2022-10-16T13:10:46.890Z,13.00
2022-10-16T13:13:44.319Z,13.00
2022-10-16T13:16:22.041Z,13.00
2022-10-16T13:19:03.957Z,13.00
2022-10-16T13:21:45.972Z,13.00
2022-10-16T13:24:29.120Z,12.90
2022-10-16T13:27:06.353Z,13.00
2022-10-16T13:29:36.205Z,13.00
2022-10-16T13:32:14.117Z,13.00
2022-10-16T13:34:48.356Z,13.00
2022-10-16T13:37:23.553Z,13.00
2022-10-16T13:39:52.715Z,13.00
2022-10-16T13:42:28.264Z,13.00
2022-10-16T13:44:58.591Z,13.00
2022-10-16T13:47:29.912Z,13.00
2022-10-16T13:50:03.529Z,13.00
2022-10-16T13:52:34.466Z,13.00
2022-10-16T13:55:03.511Z,13.10
2022-10-16T13:57:32.532Z,13.10
2022-10-16T14:00:01.596Z,13.10
2022-10-16T14:02:36.381Z,13.10
2022-10-16T14:05:06.706Z,13.10
2022-10-16T14:07:37.633Z,13.10
2022-10-16T14:10:09.352Z,13.20
2022-10-16T14:12:38.458Z,13.20
2022-10-16T14:15:21.515Z,13.20
2022-10-16T14:17:53.802Z,13.10
2022-10-16T14:20:27.912Z,13.10
2022-10-16T14:23:07.202Z,13.10
2022-10-16T14:25:36.363Z,13.10
2022-10-16T14:28:16.992Z,13.10
2022-10-16T14:30:53.742Z,13.10
2022-10-16T14:33:34.209Z,13.10
2022-10-16T14:36:06.981Z,13.10
2022-10-16T14:38:40.270Z,13.20
2022-10-16T14:41:10.218Z,13.20
2022-10-16T14:43:40.966Z,13.20
2022-10-16T14:46:17.769Z,13.20
2022-10-16T14:48:50.962Z,13.30
2022-10-16T14:51:21.665Z,13.30
2022-10-16T14:53:55.483Z,13.40
2022-10-16T14:56:33.272Z,13.40
2022-10-16T14:59:03.187Z,13.40
2022-10-16T15:01:32.183Z,13.40
2022-10-16T15:04:01.228Z,13.50
2022-10-16T15:06:30.239Z,13.50
2022-10-16T15:09:00.637Z,13.50
2022-10-16T15:11:29.646Z,13.60
2022-10-16T15:13:58.622Z,13.50
2022-10-16T15:16:27.703Z,13.60
2022-10-16T15:18:56.652Z,13.60
2022-10-16T15:21:28.256Z,13.60
2022-10-16T15:23:57.701Z,13.60
2022-10-16T15:26:29.993Z,13.60
2022-10-16T15:28:59.380Z,13.60
2022-10-16T15:31:28.358Z,13.60
2022-10-16T15:34:02.605Z,13.60
2022-10-16T15:36:34.786Z,13.70
2022-10-16T15:39:04.082Z,13.60
2022-10-16T15:41:34.623Z,13.70
2022-10-16T15:44:03.649Z,13.70
2022-10-16T15:46:34.760Z,13.70
2022-10-16T15:49:03.694Z,13.70
2022-10-16T15:51:34.296Z,13.60
2022-10-16T15:54:03.679Z,13.60
2022-10-16T15:56:34.435Z,13.60
2022-10-16T15:59:03.631Z,13.60
2022-10-16T16:01:35.057Z,13.60
2022-10-16T16:04:10.959Z,13.60
2022-10-16T16:06:45.983Z,13.60
2022-10-16T16:09:16.315Z,13.50
2022-10-16T16:11:46.731Z,13.40
2022-10-16T16:14:16.575Z,13.40
2022-10-16T16:16:45.633Z,13.30
2022-10-16T16:19:17.170Z,13.30
2022-10-16T16:21:46.211Z,13.20
2022-10-16T16:24:15.247Z,13.20
2022-10-16T16:26:46.080Z,13.20
2022-10-16T16:29:17.070Z,13.20
2022-10-16T16:31:48.062Z,13.30
2022-10-16T16:34:17.374Z,13.30
2022-10-16T16:36:46.384Z,13.30
2022-10-16T16:39:15.320Z,13.30
2022-10-16T16:41:44.343Z,13.30
2022-10-16T16:44:15.730Z,13.40
2022-10-16T16:46:45.093Z,13.40
2022-10-16T16:49:15.924Z,13.40
2022-10-16T16:51:44.950Z,13.50
2022-10-16T16:54:14.984Z,13.50
2022-10-16T16:56:45.337Z,13.60
2022-10-16T16:59:17.861Z,13.60
2022-10-16T17:01:47.034Z,13.60
2022-10-16T17:04:16.558Z,13.60
2022-10-16T17:06:45.760Z,13.60
2022-10-16T17:09:16.224Z,13.70
2022-10-16T17:11:45.715Z,13.70
2022-10-16T17:14:17.240Z,13.60
2022-10-16T17:16:46.640Z,13.70
2022-10-16T17:19:17.915Z,13.70
2022-10-16T17:21:47.483Z,13.70
2022-10-16T17:24:16.584Z,13.70
2022-10-16T17:26:49.145Z,13.70
2022-10-16T17:29:20.202Z,13.70
2022-10-16T17:31:50.642Z,13.70
2022-10-16T17:34:19.705Z,13.80
2022-10-16T17:36:48.797Z,13.70
2022-10-16T17:39:20.412Z,13.80
2022-10-16T17:41:50.011Z,13.80
2022-10-16T17:44:23.890Z,13.80
2022-10-16T17:46:54.397Z,13.90
2022-10-16T17:51:53.182Z,13.90
2022-10-16T17:54:22.613Z,13.90
2022-10-16T17:56:51.746Z,13.90
2022-10-16T17:59:23.377Z,13.90
2022-10-16T18:01:52.675Z,13.90
2022-10-16T18:04:21.878Z,14.00
2022-10-16T18:06:50.975Z,14.00
2022-10-16T18:09:21.380Z,14.10
2022-10-16T18:11:55.553Z,14.10
2022-10-16T18:14:25.944Z,14.10
2022-10-16T18:16:55.149Z,14.10
2022-10-16T18:19:26.934Z,14.20
2022-10-16T18:21:56.933Z,14.10
2022-10-16T18:24:27.799Z,14.20
2022-10-16T18:26:59.705Z,14.20
2022-10-16T18:29:30.428Z,14.20
2022-10-16T18:31:59.882Z,14.20
2022-10-16T18:34:29.466Z,14.20
2022-10-16T18:36:58.827Z,14.30
2022-10-16T18:39:28.002Z,14.20
2022-10-16T18:41:59.996Z,14.20
2022-10-16T18:44:31.468Z,14.20
2022-10-16T18:47:02.513Z,14.30
2022-10-16T18:49:31.561Z,14.20
2022-10-16T18:52:03.187Z,14.20
2022-10-16T18:54:32.811Z,14.30
2022-10-16T18:57:01.881Z,14.30
2022-10-16T18:59:32.421Z,14.30
2022-10-16T19:02:01.631Z,14.40
2022-10-16T19:04:30.692Z,14.40
2022-10-16T19:06:59.893Z,14.50
2022-10-16T19:09:28.933Z,14.50
2022-10-16T19:11:59.896Z,14.50
2022-10-16T19:14:30.220Z,14.50
2022-10-16T19:17:01.005Z,14.50
2022-10-16T19:19:30.042Z,14.60
2022-10-16T19:22:11.585Z,14.60
2022-10-16T19:24:40.674Z,14.60
2022-10-16T19:27:09.895Z,14.60
2022-10-16T19:29:38.962Z,14.60
2022-10-16T19:32:09.636Z,14.60
2022-10-16T19:34:38.965Z,14.60
2022-10-16T19:37:10.919Z,14.60
2022-10-16T19:39:40.216Z,14.60
2022-10-16T19:42:09.551Z,14.60
2022-10-16T19:44:39.605Z,14.60
2022-10-16T19:47:10.635Z,14.60
2022-10-16T19:49:39.773Z,14.50
2022-10-16T19:52:08.936Z,14.50
2022-10-16T19:54:39.158Z,14.50
2022-10-16T19:57:09.665Z,14.50
2022-10-16T19:59:41.888Z,14.40
2022-10-16T20:02:16.048Z,14.40
2022-10-16T20:04:45.247Z,14.40
2022-10-16T20:07:14.413Z,14.40
2022-10-16T20:09:43.661Z,14.30
2022-10-16T20:12:12.922Z,14.30
2022-10-16T20:14:42.390Z,14.30
2022-10-16T20:17:11.655Z,14.30
2022-10-16T20:19:42.977Z,14.30
2022-10-16T20:22:12.309Z,14.30
2022-10-16T20:24:42.000Z,14.30
2022-10-16T20:27:11.142Z,14.30
2022-10-16T20:29:40.366Z,14.30
2022-10-16T20:32:09.648Z,14.30
2022-10-16T20:37:09.521Z,14.30
2022-10-16T20:39:38.640Z,14.30
2022-10-16T20:42:07.682Z,14.30
2022-10-16T20:44:36.737Z,14.30
2022-10-16T20:47:05.992Z,14.30
2022-10-16T20:49:40.653Z,14.20
2022-10-16T20:52:11.581Z,14.20
2022-10-16T20:54:40.684Z,14.20
2022-10-16T20:57:09.755Z,14.30
2022-10-16T20:59:38.939Z,14.30
2022-10-16T21:02:13.356Z,14.30
2022-10-16T21:04:43.384Z,14.30
2022-10-16T21:07:13.769Z,14.30
2022-10-16T21:09:42.720Z,14.30
2022-10-16T21:12:12.157Z,14.30
2022-10-16T21:14:46.416Z,14.40
2022-10-16T21:17:25.630Z,14.40
2022-10-16T21:19:54.559Z,14.40
2022-10-16T21:22:25.231Z,14.40
2022-10-16T21:24:54.534Z,14.30
2022-10-16T21:27:23.553Z,14.30
2022-10-16T21:29:54.408Z,14.30
2022-10-16T21:32:23.527Z,14.30
2022-10-16T21:34:52.516Z,14.20
2022-10-16T21:37:21.518Z,14.10
2022-10-16T21:39:51.897Z,14.10
2022-10-16T21:42:20.848Z,14.10
2022-10-16T21:44:49.805Z,14.10
2022-10-16T21:47:19.217Z,14.10
2022-10-16T21:49:48.400Z,14.10
2022-10-16T21:52:17.398Z,14.00
2022-10-16T21:54:46.422Z,14.00
2022-10-16T21:57:16.827Z,14.00
2022-10-16T21:59:45.838Z,13.90
2022-10-16T22:02:14.801Z,13.90
2022-10-16T22:04:43.764Z,13.90
2022-10-16T22:07:12.757Z,13.80
2022-10-16T22:09:41.868Z,13.80
2022-10-16T22:12:10.901Z,13.80
2022-10-16T22:14:41.965Z,13.80
2022-10-16T22:17:10.924Z,13.80
2022-10-16T22:19:40.052Z,13.80
2022-10-16T22:22:09.115Z,13.70
2022-10-16T22:24:38.749Z,13.70
2022-10-16T22:27:07.733Z,13.70
2022-10-16T22:29:36.763Z,13.70
2022-10-16T22:32:07.242Z,13.70
2022-10-16T22:34:36.209Z,13.70
2022-10-16T22:37:05.335Z,13.70
2022-10-16T22:39:34.451Z,13.70
2022-10-16T22:42:03.688Z,13.60
2022-10-16T22:44:32.620Z,13.60
2022-10-16T22:47:01.752Z,13.70
2022-10-16T22:49:32.083Z,13.60
2022-10-16T22:52:02.696Z,13.60
2022-10-16T22:54:31.723Z,13.60
2022-10-16T22:57:00.678Z,13.60
2022-10-16T22:59:30.036Z,13.60
2022-10-16T23:01:59.013Z,13.60
2022-10-16T23:04:28.000Z,13.60
2022-10-16T23:06:59.232Z,13.50
2022-10-16T23:09:28.249Z,13.50
2022-10-16T23:11:57.195Z,13.50
2022-10-16T23:14:26.185Z,13.50
2022-10-16T23:16:55.209Z,13.50
2022-10-16T23:19:24.217Z,13.50
2022-10-16T23:21:53.299Z,13.40
2022-10-16T23:24:23.644Z,13.50
2022-10-16T23:26:52.634Z,13.40
2022-10-16T23:29:21.588Z,13.50
2022-10-16T23:31:50.615Z,13.40
2022-10-16T23:34:19.567Z,13.40
2022-10-16T23:36:48.562Z,13.50
2022-10-16T23:39:17.847Z,13.40
2022-10-16T23:41:48.236Z,13.40
2022-10-16T23:44:17.335Z,13.40
2022-10-16T23:46:46.465Z,13.40
2022-10-16T23:49:15.549Z,13.40
2022-10-16T23:51:44.484Z,13.40
2022-10-16T23:54:13.500Z,13.40
2022-10-16T23:56:42.458Z,13.40
2022-10-16T23:59:12.798Z,13.40
